Terminal Aerodrome Forecast
Issued by NWS Charleston, WV

Current Version | Previous Version | Text Only | Print | Product List | Glossary Off
Versions: 1 2 3 4 5 6 7 8 9 10 11 12 13 14 15 16 17 18 19 20 21 22 23 24 25 26

759
FTUS41 KRLX 241120
TAFEKN
TAF
KEKN 241120Z 2412/2512 18006KT P6SM SCT200
     FM242100 17010G18KT P6SM SCT090
     FM250100 17012G22KT P6SM SCT080=

USA.gov is the U.S. government's official web portal to all federal, state and local government web resources and services.